Time,TemperatureF,DewpointF,PressureIn,WindDirection,WindDirectionDegrees,WindSpeedMPH,WindSpeedGustMPH,Humidity,HourlyPrecipIn,Conditions,Clouds,dailyrainin,SoftwareType,DateUTC
2013-02-10 00:11:00,63.0,60.0,29.90,SE,139,2.0,8.0,91,0.00,,,0.00,weatherlink.com 1.10,2013-02-10 06:11:00,
2013-02-10 00:26:00,63.2,61.0,29.89,SSE,168,4.0,8.0,91,0.00,,,0.00,weatherlink.com 1.10,2013-02-10 06:26:00,
2013-02-10 00:41:00,63.5,61.0,29.88,SE,138,3.0,11.0,91,0.00,,,0.00,weatherlink.com 1.10,2013-02-10 06:41:00,
2013-02-10 00:57:00,63.7,61.0,29.87,SSE,158,3.0,10.0,91,0.00,,,0.00,weatherlink.com 1.10,2013-02-10 06:57:00,
2013-02-10 01:11:00,63.9,62.0,29.87,SSE,150,4.0,11.0,92,0.00,,,0.00,weatherlink.com 1.10,2013-02-10 07:11:00,
2013-02-10 01:27:00,64.3,62.0,29.86,SE,146,3.0,15.0,92,0.00,,,0.00,weatherlink.com 1.10,2013-02-10 07:27:00,
2013-02-10 01:41:00,64.3,62.0,29.86,SE,144,4.0,7.0,92,0.00,,,0.00,weatherlink.com 1.10,2013-02-10 07:41:00,
2013-02-10 01:56:00,64.3,62.0,29.86,SSE,155,3.0,5.0,93,0.00,,,0.00,weatherlink.com 1.10,2013-02-10 07:56:00,
2013-02-10 02:11:00,64.3,63.0,29.85,SE,135,0.0,11.0,94,0.00,,,0.00,weatherlink.com 1.10,2013-02-10 08:11:00,
2013-02-10 02:27:00,64.5,63.0,29.83,SSE,150,3.0,10.0,94,0.00,,,0.00,weatherlink.com 1.10,2013-02-10 08:27:00,
2013-02-10 02:41:00,65.0,63.0,29.83,SSE,166,6.0,9.0,94,0.00,,,0.00,weatherlink.com 1.10,2013-02-10 08:41:00,
2013-02-10 03:12:00,65.9,64.0,29.82,SSE,166,6.0,10.0,94,0.00,,,0.00,weatherlink.com 1.10,2013-02-10 09:12:00,
2013-02-10 03:27:00,66.2,64.0,29.81,SSE,162,5.0,13.0,93,0.00,,,0.00,weatherlink.com 1.10,2013-02-10 09:27:00,
2013-02-10 03:42:00,66.6,65.0,29.80,SSE,149,5.0,9.0,93,0.00,,,0.00,weatherlink.com 1.10,2013-02-10 09:42:00,
2013-02-10 03:57:00,66.8,65.0,29.79,South,175,7.0,13.0,92,0.00,,,0.00,weatherlink.com 1.10,2013-02-10 09:57:00,
2013-02-10 04:12:00,67.2,65.0,29.78,SSE,148,6.0,11.0,92,0.00,,,0.00,weatherlink.com 1.10,2013-02-10 10:12:00,
2013-02-10 04:27:00,67.5,65.0,29.78,South,170,6.0,14.0,91,0.00,,,0.00,weatherlink.com 1.10,2013-02-10 10:27:00,
2013-02-10 04:42:00,67.8,65.0,29.79,SSE,159,6.0,12.0,91,0.00,,,0.00,weatherlink.com 1.10,2013-02-10 10:42:00,
2013-02-10 04:57:00,68.0,65.0,29.79,South,175,6.0,9.0,91,0.00,,,0.00,weatherlink.com 1.10,2013-02-10 10:57:00,
2013-02-10 05:12:00,68.1,65.0,29.79,SSE,167,6.0,12.0,91,0.00,,,0.00,weatherlink.com 1.10,2013-02-10 11:12:00,
2013-02-10 05:27:00,68.4,66.0,29.80,SSE,162,5.0,12.0,91,0.00,,,0.00,weatherlink.com 1.10,2013-02-10 11:27:00,
2013-02-10 05:42:00,68.5,66.0,29.80,SE,144,6.0,9.0,90,0.00,,,0.00,weatherlink.com 1.10,2013-02-10 11:42:00,
2013-02-10 05:57:00,68.6,66.0,29.80,SSE,163,4.0,8.0,91,0.00,,,0.00,weatherlink.com 1.10,2013-02-10 11:57:00,
2013-02-10 06:12:00,68.7,66.0,29.80,SSE,148,5.0,8.0,91,0.00,,,0.00,weatherlink.com 1.10,2013-02-10 12:12:00,
2013-02-10 06:27:00,68.6,66.0,29.79,SSE,168,6.0,9.0,91,0.00,,,0.00,weatherlink.com 1.10,2013-02-10 12:27:00,
2013-02-10 06:57:00,68.8,66.0,29.80,South,170,5.0,7.0,91,0.00,,,0.00,weatherlink.com 1.10,2013-02-10 12:57:00,
2013-02-10 07:12:00,69.1,66.0,29.81,South,170,5.0,9.0,90,0.00,,,0.00,weatherlink.com 1.10,2013-02-10 13:12:00,
2013-02-10 07:27:00,69.4,66.0,29.81,South,171,5.0,9.0,90,0.00,,,0.00,weatherlink.com 1.10,2013-02-10 13:27:00,
2013-02-10 07:42:00,69.4,66.0,29.82,SSE,157,4.0,7.0,90,0.00,,,0.00,weatherlink.com 1.10,2013-02-10 13:42:00,
2013-02-10 07:57:00,69.4,66.0,29.83,South,180,4.0,10.0,90,0.00,,,0.00,weatherlink.com 1.10,2013-02-10 13:57:00,
2013-02-10 08:12:00,69.4,66.0,29.83,SSE,162,2.0,8.0,90,0.00,,,0.00,weatherlink.com 1.10,2013-02-10 14:12:00,
2013-02-10 08:27:00,69.0,66.0,29.84,NW,309,0.0,4.0,91,0.00,,,0.00,weatherlink.com 1.10,2013-02-10 14:27:00,
2013-02-10 08:42:00,65.9,62.0,29.86,West,278,1.0,6.0,87,0.19,,,0.19,weatherlink.com 1.10,2013-02-10 14:42:00,
2013-02-10 08:57:00,62.8,61.0,29.86,WNW,294,2.0,4.0,92,0.50,,,0.50,weatherlink.com 1.10,2013-02-10 14:57:00,
2013-02-10 09:12:00,62.1,60.0,29.86,SSE,168,2.0,5.0,94,0.58,,,0.58,weatherlink.com 1.10,2013-02-10 15:12:00,
2013-02-10 09:27:00,61.7,60.0,29.86,SSW,194,2.0,5.0,95,0.66,,,0.66,weatherlink.com 1.10,2013-02-10 15:27:00,
2013-02-10 09:42:00,60.9,59.0,29.86,SSW,194,2.0,6.0,94,0.46,,,0.68,weatherlink.com 1.10,2013-02-10 15:42:00,
2013-02-10 09:57:00,60.8,59.0,29.86,NW,313,1.0,3.0,94,0.20,,,0.70,weatherlink.com 1.10,2013-02-10 15:57:00,
2013-02-10 10:12:00,60.4,59.0,29.88,NW,313,0.0,3.0,94,0.13,,,0.72,weatherlink.com 1.10,2013-02-10 16:12:00,
2013-02-10 10:27:00,60.0,58.0,29.89,SSE,161,1.0,2.0,94,0.06,,,0.72,weatherlink.com 1.10,2013-02-10 16:27:00,
2013-02-10 10:42:00,60.1,58.0,29.90,SSE,161,0.0,2.0,94,0.03,,,0.72,weatherlink.com 1.10,2013-02-10 16:42:00,
2013-02-10 10:57:00,60.3,59.0,29.91,SSE,161,0.0,1.0,95,0.02,,,0.72,weatherlink.com 1.10,2013-02-10 16:57:00,
2013-02-10 11:27:00,60.9,59.0,29.91,SSE,161,1.0,2.0,93,0.00,,,0.72,weatherlink.com 1.10,2013-02-10 17:27:00,
2013-02-10 11:44:00,61.0,59.0,29.89,SSE,161,0.0,2.0,93,0.00,,,0.72,weatherlink.com 1.10,2013-02-10 17:44:00,
2013-02-10 11:58:00,61.6,59.0,29.89,SSE,161,2.0,3.0,91,0.00,,,0.72,weatherlink.com 1.10,2013-02-10 17:58:00,
2013-02-10 12:12:00,63.0,59.0,29.90,WNW,300,0.0,4.0,88,0.00,,,0.72,weatherlink.com 1.10,2013-02-10 18:12:00,
2013-02-10 12:27:00,65.9,59.0,29.89,WNW,284,2.0,3.0,78,0.00,,,0.72,weatherlink.com 1.10,2013-02-10 18:27:00,
2013-02-10 12:42:00,65.0,56.0,29.89,SSW,213,0.0,6.0,72,0.00,,,0.72,weatherlink.com 1.10,2013-02-10 18:42:00,
2013-02-10 12:58:00,64.0,56.0,29.87,North,5,0.0,2.0,74,0.00,,,0.72,weatherlink.com 1.10,2013-02-10 18:58:00,
2013-02-10 13:12:00,64.9,56.0,29.86,North,355,0.0,3.0,72,0.00,,,0.72,weatherlink.com 1.10,2013-02-10 19:12:00,
2013-02-10 13:27:00,65.7,54.0,29.87,NNW,331,1.0,3.0,66,0.00,,,0.72,weatherlink.com 1.10,2013-02-10 19:27:00,
2013-02-10 13:42:00,65.4,55.0,29.89,SSW,213,0.0,1.0,69,0.00,,,0.72,weatherlink.com 1.10,2013-02-10 19:42:00,
2013-02-10 13:57:00,65.3,54.0,29.89,SSW,211,1.0,2.0,66,0.00,,,0.72,weatherlink.com 1.10,2013-02-10 19:57:00,
2013-02-10 14:12:00,65.5,54.0,29.88,South,191,0.0,4.0,66,0.00,,,0.72,weatherlink.com 1.10,2013-02-10 20:12:00,
2013-02-10 14:27:00,65.8,52.0,29.87,SSE,165,0.0,3.0,62,0.00,,,0.72,weatherlink.com 1.10,2013-02-10 20:27:00,
2013-02-10 14:42:00,66.5,50.0,29.87,NNW,347,1.0,3.0,55,0.00,,,0.72,weatherlink.com 1.10,2013-02-10 20:42:00,
2013-02-10 14:57:00,66.3,51.0,29.87,NNW,345,0.0,2.0,58,0.00,,,0.72,weatherlink.com 1.10,2013-02-10 20:57:00,
2013-02-10 15:13:00,66.5,50.0,29.88,SW,223,1.0,4.0,55,0.00,,,0.72,weatherlink.com 1.10,2013-02-10 21:13:00,
2013-02-10 15:27:00,66.1,50.0,29.88,SW,223,0.0,1.0,57,0.00,,,0.72,weatherlink.com 1.10,2013-02-10 21:27:00,
2013-02-10 15:43:00,66.7,51.0,29.88,SW,223,1.0,2.0,57,0.00,,,0.72,weatherlink.com 1.10,2013-02-10 21:43:00,
2013-02-10 15:57:00,66.8,51.0,29.89,SW,223,0.0,1.0,57,0.00,,,0.72,weatherlink.com 1.10,2013-02-10 21:57:00,
2013-02-10 16:13:00,66.3,48.0,29.89,SW,223,0.0,1.0,52,0.00,,,0.72,weatherlink.com 1.10,2013-02-10 22:13:00,
2013-02-10 16:28:00,65.5,48.0,29.89,SW,223,0.0,1.0,54,0.00,,,0.72,weatherlink.com 1.10,2013-02-10 22:28:00,
2013-02-10 16:43:00,64.9,50.0,29.89,SW,223,1.0,2.0,59,0.00,,,0.72,weatherlink.com 1.10,2013-02-10 22:43:00,
2013-02-10 16:58:00,64.1,50.0,29.89,SW,223,0.0,0.0,61,0.00,,,0.72,weatherlink.com 1.10,2013-02-10 22:58:00,
2013-02-10 17:13:00,63.6,52.0,29.91,SW,223,1.0,1.0,65,0.00,,,0.72,weatherlink.com 1.10,2013-02-10 23:13:00,
2013-02-10 17:29:00,63.3,52.0,29.91,SW,223,0.0,1.0,66,0.00,,,0.72,weatherlink.com 1.10,2013-02-10 23:29:00,
2013-02-10 17:43:00,62.9,51.0,29.90,SW,223,0.0,0.0,66,0.00,,,0.72,weatherlink.com 1.10,2013-02-10 23:43:00,
2013-02-10 17:58:00,62.1,52.0,29.91,SW,223,0.0,1.0,70,0.00,,,0.72,weatherlink.com 1.10,2013-02-10 23:58:00,
2013-02-10 18:13:00,61.6,53.0,29.92,SW,223,0.0,1.0,74,0.00,,,0.72,weatherlink.com 1.10,2013-02-11 00:13:00,
2013-02-10 18:28:00,61.3,54.0,29.93,SW,223,0.0,0.0,77,0.00,,,0.72,weatherlink.com 1.10,2013-02-11 00:28:00,
2013-02-10 18:43:00,60.9,54.0,29.93,SW,223,0.0,0.0,77,0.00,,,0.72,weatherlink.com 1.10,2013-02-11 00:43:00,
2013-02-10 18:58:00,60.4,54.0,29.94,SW,223,0.0,0.0,78,0.00,,,0.72,weatherlink.com 1.10,2013-02-11 00:58:00,
2013-02-10 19:13:00,60.3,54.0,29.94,SW,223,0.0,0.0,80,0.00,,,0.72,weatherlink.com 1.10,2013-02-11 01:13:00,
2013-02-10 19:28:00,59.9,53.0,29.95,SW,223,0.0,0.0,78,0.00,,,0.72,weatherlink.com 1.10,2013-02-11 01:28:00,
2013-02-10 19:58:00,59.6,54.0,29.96,SW,223,0.0,0.0,82,0.00,,,0.72,weatherlink.com 1.10,2013-02-11 01:58:00,
2013-02-10 20:13:00,59.5,55.0,29.97,SW,223,0.0,0.0,84,0.00,,,0.72,weatherlink.com 1.10,2013-02-11 02:13:00,
2013-02-10 20:28:00,59.3,55.0,29.98,SW,223,0.0,0.0,84,0.00,,,0.72,weatherlink.com 1.10,2013-02-11 02:28:00,
2013-02-10 20:43:00,59.2,55.0,29.98,SW,223,0.0,0.0,85,0.00,,,0.72,weatherlink.com 1.10,2013-02-11 02:43:00,
2013-02-10 20:58:00,58.8,54.0,29.99,SW,223,0.0,0.0,83,0.00,,,0.72,weatherlink.com 1.10,2013-02-11 02:58:00,
2013-02-10 21:13:00,58.6,52.0,29.99,SW,223,0.0,0.0,79,0.00,,,0.72,weatherlink.com 1.10,2013-02-11 03:13:00,
2013-02-10 21:28:00,58.4,53.0,29.99,SW,223,0.0,0.0,82,0.00,,,0.72,weatherlink.com 1.10,2013-02-11 03:28:00,
2013-02-10 21:43:00,58.1,54.0,29.99,SW,223,1.0,2.0,86,0.00,,,0.72,weatherlink.com 1.10,2013-02-11 03:43:00,
2013-02-10 21:58:00,57.7,54.0,29.98,SW,223,0.0,0.0,87,0.00,,,0.72,weatherlink.com 1.10,2013-02-11 03:58:00,
2013-02-10 22:13:00,57.3,54.0,29.99,SW,223,0.0,0.0,87,0.00,,,0.72,weatherlink.com 1.10,2013-02-11 04:13:00,
2013-02-10 22:28:00,57.0,53.0,30.00,SW,223,0.0,0.0,87,0.00,,,0.72,weatherlink.com 1.10,2013-02-11 04:28:00,
2013-02-10 22:43:00,56.9,53.0,29.99,SW,223,0.0,1.0,87,0.00,,,0.72,weatherlink.com 1.10,2013-02-11 04:43:00,
2013-02-10 22:58:00,56.6,52.0,29.99,SW,223,0.0,0.0,84,0.00,,,0.72,weatherlink.com 1.10,2013-02-11 04:58:00,
2013-02-10 23:13:00,56.4,51.0,30.00,SW,223,0.0,0.0,82,0.00,,,0.00,weatherlink.com 1.10,2013-02-11 05:13:00,
2013-02-10 23:28:00,56.5,52.0,29.99,SW,223,0.0,1.0,86,0.00,,,0.00,weatherlink.com 1.10,2013-02-11 05:28:00,
2013-02-10 23:43:00,56.4,54.0,30.01,SW,223,0.0,2.0,90,0.00,,,0.00,weatherlink.com 1.10,2013-02-11 05:43:00,
2013-02-10 23:58:00,56.2,53.0,30.03,SW,223,0.0,2.0,89,0.00,,,0.00,weatherlink.com 1.10,2013-02-11 05:58:00,